Thunder radar more information blitzortung!


Radar de pluja more information rain snow radar


Visita la nostra xarxa de llocs de meteo:

Template documentation
and downloads

And another site



No particular awareness of the weather is required.    There are no Weather-warnings

Pagina Historial Weather Underground text

Diari Resum Novembre 19, 2017 Unitats:  Mètric    Imperial   Tant
« Previous Dia
SegĂźent Dia »
Diari Setmana Mensual Anual Personalitzada
  Maxima: Minima: Media:
Temperatura: -17.8 °C -15.3 °C -12.1 °C
Punt de rosada: -17.8 °C -18.5 °C -16.6 °C
Humitat: Humidity % 51 % 57 %
Wind Speed: 0 km/h 0 km/h 5 km/h
RĂ fegues de vent: 0 km/h - -
Vent:- - South
Pression baro: 0 hPa 34533.8 hPa -
Precipitacions: 0 mm    
Historical Graphs
 
 
Dades de taula per Novembre 19, 2017
Temps Temperatura Punt de rosada Pression baro Vent Wind Speed RĂ fegues de vent Humitat Rainfall Rate (Hourly)
-17.8 °C -17.8 °C 0 hPa Calm     Humidity % 0 mm
00:00 -15.1 °C -18.4 °C 34533.8 hPa North 2.6 km/h 7.7 km/h 65 % 0 mm
00:04 -13.8 °C -18.3 °C 34601.5 hPa WSW 6 km/h 6 km/h 56 % 0 mm
00:09 -13.8 °C -18.3 °C 34601.5 hPa WSW 6 km/h 6 km/h 56 % 0 mm
00:14 -13.7 °C -18.2 °C 34601.5 hPa WSW 6 km/h 6 km/h 56 % 0 mm
00:19 -13.8 °C -18.3 °C 34567.7 hPa NNE 3.1 km/h 3.1 km/h 56 % 0 mm
00:20 -14.9 °C -18.3 °C 34533.8 hPa NW 5.1 km/h 7.7 km/h 65 % 0 mm
00:24 -13.7 °C -18.2 °C 34567.7 hPa WNW 6 km/h 6 km/h 56 % 0 mm
00:29 -13.6 °C -18.1 °C 34567.7 hPa WNW 3.1 km/h   57 % 0 mm
00:30 -14.9 °C -18.3 °C 34533.8 hPa NNW 2.6 km/h 5.1 km/h 65 % 0 mm
00:34 -13.7 °C -18.1 °C 34567.7 hPa Calm     57 % 0 mm
00:39 -13.7 °C -18.2 °C 34567.7 hPa Calm     57 % 0 mm
00:40 -14.9 °C -18.3 °C 34533.8 hPa NNW 5.1 km/h 7.7 km/h 65 % 0 mm
00:44 -13.7 °C -18.2 °C 34567.7 hPa WNW 3.1 km/h 3.1 km/h 57 % 0 mm
00:49 -13.7 °C -18.2 °C 34567.7 hPa Calm     57 % 0 mm
01:00 -15.2 °C -18.4 °C 34533.8 hPa West 2.6 km/h 5.1 km/h 66 % 0 mm
01:10 -15.2 °C -18.5 °C 34533.8 hPa West 5.1 km/h 5.1 km/h 65 % 0 mm
01:20 -15.1 °C -18.3 °C 34533.8 hPa West 2.6 km/h 5.1 km/h 66 % 0 mm
01:30 -15.1 °C -18.3 °C 34567.7 hPa Calm   5.1 km/h 66 % 0 mm
01:40 -15.1 °C -18.3 °C 34533.8 hPa NW 2.6 km/h 7.7 km/h 66 % 0 mm
01:50 -14.9 °C -18.2 °C 34533.8 hPa NNE 7.7 km/h 10.3 km/h 66 % 0 mm
02:00 -15 °C -18.2 °C 34567.7 hPa Calm   10.3 km/h 66 % 0 mm
02:10 -14.9 °C -18.2 °C 34567.7 hPa North 5.1 km/h 7.7 km/h 66 % 0 mm
02:40 -14.4 °C -17.7 °C 34601.5 hPa NE 2.6 km/h 5.1 km/h 66 % 0 mm
03:00 -14.4 °C -17.8 °C 34601.5 hPa NNE 7.7 km/h 7.7 km/h 65 % 0 mm
03:20 -14.1 °C -17.5 °C 34601.5 hPa North 5.1 km/h 7.7 km/h 65 % 0 mm
03:30 -13.9 °C -17.4 °C 34601.5 hPa North 5.1 km/h 7.7 km/h 64 % 0 mm
03:50 -13.6 °C -17.2 °C 34601.5 hPa North 5.1 km/h 7.7 km/h 64 % 0 mm
04:00 -13.3 °C -17 °C 34601.5 hPa NNE 5.1 km/h 10.3 km/h 63 % 0 mm
04:10 -13 °C -16.7 °C 34635.4 hPa NNE 2.6 km/h 5.1 km/h 63 % 0 mm
04:30 -12.7 °C -16.6 °C 34635.4 hPa NNE 5.1 km/h 7.7 km/h 62 % 0 mm
04:40 -12.6 °C -16.6 °C 34635.4 hPa North 7.7 km/h 7.7 km/h 61 % 0 mm
04:50 -12.7 °C -16.6 °C 34635.4 hPa NNE 7.7 km/h 10.3 km/h 61 % 0 mm
05:00 -12.4 °C -16.3 °C 34635.4 hPa NNE 7.7 km/h 15.6 km/h 61 % 0 mm
11:10 -12.1 °C -16.2 °C 34635.4 hPa NE 9.3 km/h 9.3 km/h 60 % 0 mm
11:15 -12.1 °C -16.2 °C 34635.4 hPa NNE 11.9 km/h 11.9 km/h 60 % 0 mm
11:20 -11.9 °C -16.1 °C 34669.3 hPa ENE 9.3 km/h 9.3 km/h 60 % 0 mm
11:30 -11.8 °C -16.1 °C 34669.3 hPa ENE 11.9 km/h 11.9 km/h 59 % 0 mm
11:35 -11.7 °C -15.9 °C 34635.4 hPa North 10.3 km/h 10.3 km/h 59 % 0 mm
11:45 -11.5 °C -15.8 °C 34635.4 hPa ENE 6 km/h 6 km/h 59 % 0 mm
11:50 -11.4 °C -15.8 °C 34635.4 hPa ENE 9 km/h 9 km/h 58 % 0 mm
11:55 -11.3 °C -15.8 °C 34635.4 hPa ENE 15 km/h 15 km/h 58 % 0 mm
12:10 -11 °C -15.6 °C 34635.4 hPa ENE 9 km/h 9 km/h 57 % 0 mm
12:15 -10.9 °C -15.6 °C 34635.4 hPa ESE 15 km/h 15 km/h 57 % 0 mm
12:20 -10.8 °C -15.4 °C 34635.4 hPa NNE 9 km/h 9 km/h 57 % 0 mm
12:30 -10.7 °C -15.4 °C 34635.4 hPa North 11.9 km/h 11.9 km/h 56 % 0 mm
12:45 -10.6 °C -15.3 °C 34635.4 hPa NNE 8.5 km/h 8.5 km/h 56 % 0 mm
12:50 -10.4 °C -15.2 °C 34635.4 hPa NNE 6 km/h 6 km/h 56 % 0 mm
12:55 -10.4 °C -15.2 °C 34635.4 hPa North 9 km/h 9 km/h 56 % 0 mm
13:00 -10.4 °C -15.3 °C 34635.4 hPa East 9 km/h 9 km/h 55 % 0 mm
13:10 -10.2 °C -15.2 °C 34601.5 hPa ENE 9 km/h 9 km/h 55 % 0 mm
13:15 -10.2 °C -15.1 °C 34601.5 hPa NNE 12.2 km/h 12.2 km/h 55 % 0 mm
13:20 -10.1 °C -15.1 °C 34601.5 hPa NE 9.3 km/h 9.3 km/h 55 % 0 mm
13:25 -10.1 °C -15.2 °C 34601.5 hPa North 14.5 km/h 14.5 km/h 54 % 0 mm
13:30 -10.1 °C -15.2 °C 34601.5 hPa ESE 9.3 km/h 9.3 km/h 54 % 0 mm
13:35 -10 °C -15.1 °C 34601.5 hPa ENE 6 km/h 6 km/h 54 % 0 mm
13:40 -9.9 °C -15 °C 34601.5 hPa NNW 9 km/h 9 km/h 54 % 0 mm
13:45 -9.8 °C -14.9 °C 34601.5 hPa NNE 9 km/h 9 km/h 54 % 0 mm
13:50 -9.8 °C -14.9 °C 34601.5 hPa NNW 6 km/h 6 km/h 54 % 0 mm
13:55 -9.8 °C -14.9 °C 34601.5 hPa ENE 8 km/h 8 km/h 54 % 0 mm
14:00 -9.8 °C -14.9 °C 34601.5 hPa NE 6 km/h 6 km/h 54 % 0 mm
14:05 -9.7 °C -14.8 °C 34601.5 hPa NNE 11.9 km/h 11.9 km/h 54 % 0 mm
14:10 -9.7 °C -14.8 °C 34601.5 hPa NNE 10.3 km/h 10.3 km/h 54 % 0 mm
14:15 -9.6 °C -14.7 °C 34601.5 hPa North 7.6 km/h 7.6 km/h 54 % 0 mm
14:20 -9.6 °C -14.7 °C 34601.5 hPa NE 6 km/h 6 km/h 54 % 0 mm
14:30 -9.4 °C -14.7 °C 34601.5 hPa NE 11.9 km/h 11.9 km/h 53 % 0 mm
14:35 -9.4 °C -14.7 °C 34601.5 hPa NNE 6.3 km/h 6.3 km/h 53 % 0 mm
14:40 -9.4 °C -14.7 °C 34601.5 hPa NNE 11.9 km/h 11.9 km/h 53 % 0 mm
14:45 -9.4 °C -14.7 °C 34601.5 hPa NE 11.9 km/h 11.9 km/h 53 % 0 mm
14:50 -9.4 °C -14.7 °C 34567.7 hPa NNE 11.9 km/h 11.9 km/h 53 % 0 mm
14:55 -9.4 °C -14.7 °C 34567.7 hPa ENE 5.6 km/h   53 % 0 mm
15:00 -9.3 °C -14.6 °C 34567.7 hPa ENE 9 km/h 9 km/h 53 % 0 mm
15:05 -9.3 °C -14.6 °C 34601.5 hPa NNE 3.1 km/h   53 % 0 mm
15:10 -9.3 °C -14.6 °C 34601.5 hPa NE 6 km/h 6 km/h 53 % 0 mm
15:15 -9.2 °C -14.7 °C 34601.5 hPa ENE 3.7 km/h 3.7 km/h 52 % 0 mm
15:20 -9.2 °C -14.7 °C 34601.5 hPa NNE 9 km/h 9 km/h 52 % 0 mm
15:25 -9.2 °C -14.7 °C 34601.5 hPa NE 4.2 km/h 4.2 km/h 52 % 0 mm
15:30 -9.2 °C -14.7 °C 34601.5 hPa NNE 6 km/h 6 km/h 52 % 0 mm
15:35 -9.2 °C -14.7 °C 34567.7 hPa NNE 6 km/h 6 km/h 52 % 0 mm
15:40 -9.2 °C -14.6 °C 34567.7 hPa NE 6 km/h 6 km/h 52 % 0 mm
15:41 -9.2 °C -14.6 °C 34567.7 hPa NNE 6 km/h 6 km/h 52 % 0 mm
15:46 -9.2 °C -14.6 °C 34567.7 hPa NE 3.1 km/h   52 % 0 mm
15:51 -9.1 °C -14.6 °C 34601.5 hPa North 3.1 km/h 3.1 km/h 52 % 0 mm
15:56 -9.1 °C -14.6 °C 34601.5 hPa Calm     52 % 0 mm
16:06 -9.1 °C -14.7 °C 34601.5 hPa Calm     51 % 0 mm
16:11 -9.1 °C -14.7 °C 34601.5 hPa ENE 4.2 km/h   51 % 0 mm
16:16 -8.7 °C -14.2 °C 34601.5 hPa SW 6 km/h 6 km/h 52 % 0 mm
16:21 -8.8 °C -14.5 °C 34601.5 hPa Calm     51 % 0 mm
16:26 -8.8 °C -14.5 °C 34601.5 hPa SW 3.1 km/h 3.1 km/h 51 % 0 mm
16:31 -8.8 °C -14.4 °C 34601.5 hPa Calm     51 % 0 mm
16:36 -8.7 °C -14.2 °C 34601.5 hPa SW 3.7 km/h 3.7 km/h 52 % 0 mm
16:41 -8.8 °C -14.3 °C 34601.5 hPa WNW 6 km/h 6 km/h 52 % 0 mm
16:46 -8.8 °C -14.3 °C 34601.5 hPa WNW 11.9 km/h 11.9 km/h 52 % 0 mm
16:51 -8.9 °C -14.6 °C 34601.5 hPa WNW 9 km/h 9 km/h 51 % 0 mm
16:56 -9 °C -14.6 °C 34601.5 hPa NNW 6 km/h 6 km/h 51 % 0 mm
17:01 -9.2 °C -14.8 °C 34601.5 hPa West 6.3 km/h 6.3 km/h 51 % 0 mm
17:06 -9.3 °C -14.9 °C 34601.5 hPa NW 6 km/h 6 km/h 51 % 0 mm
17:16 -9.6 °C -15.1 °C 34601.5 hPa WNW 6 km/h 6 km/h 51 % 0 mm
17:21 -9.7 °C -15.2 °C 34601.5 hPa NW 3.1 km/h   51 % 0 mm
17:31 -10 °C -15.6 °C 34601.5 hPa WNW 9 km/h 9 km/h 51 % 0 mm
17:36 -10.1 °C -15.7 °C 34601.5 hPa WNW 6 km/h 6 km/h 51 % 0 mm
17:41 -10.2 °C -15.7 °C 34601.5 hPa WNW 2.3 km/h   51 % 0 mm
17:46 -10.3 °C -15.7 °C 34601.5 hPa NW 6 km/h 6 km/h 52 % 0 mm
17:47 -10.3 °C -15.7 °C 34601.5 hPa NW 6 km/h 6 km/h 52 % 0 mm
17:52 -10.3 °C -15.7 °C 34601.5 hPa NW 3.1 km/h 3.1 km/h 52 % 0 mm
17:57 -10.4 °C -15.8 °C 34601.5 hPa Calm     52 % 0 mm
18:02 -10.5 °C -15.9 °C 34601.5 hPa WSW 6 km/h 6 km/h 52 % 0 mm
18:07 -10.7 °C -16.1 °C 34635.4 hPa SW 6 km/h 6 km/h 52 % 0 mm
18:12 -10.8 °C -16.2 °C 34635.4 hPa SW 6 km/h 6 km/h 52 % 0 mm
18:17 -10.9 °C -16.3 °C 34635.4 hPa SW 6 km/h 6 km/h 52 % 0 mm
18:20 -13.6 °C -17.3 °C 34669.3 hPa Calm   10.3 km/h 62 % 0 mm
18:22 -11.1 °C -16.3 °C 34635.4 hPa WSW 6 km/h 6 km/h 52 % 0 mm
18:27 -11.1 °C -16.3 °C 34635.4 hPa West 6 km/h 6 km/h 52 % 0 mm
18:32 -11.1 °C -16.3 °C 34635.4 hPa WSW 6 km/h 6.3 km/h 52 % 0 mm
18:37 -11 °C -16.2 °C 34635.4 hPa West 11.9 km/h 11.9 km/h 53 % 0 mm
18:40 -13.7 °C -17.4 °C 34635.4 hPa Calm   2.6 km/h 62 % 0 mm
18:42 -11.1 °C -16.2 °C 34635.4 hPa WNW 6 km/h 6 km/h 53 % 0 mm
18:52 -11.1 °C -16.2 °C 34635.4 hPa West 6 km/h 6 km/h 53 % 0 mm
18:57 -11.1 °C -16.3 °C 34635.4 hPa WSW 3.7 km/h 3.7 km/h 53 % 0 mm
19:00 -13.9 °C -17.6 °C 34635.4 hPa Calm   2.6 km/h 63 % 0 mm
19:07 -11.3 °C -16.5 °C 34635.4 hPa NE 6 km/h 6 km/h 53 % 0 mm
19:12 -11.4 °C -16.6 °C 34635.4 hPa West 3.7 km/h 3.7 km/h 53 % 0 mm
19:17 -11.5 °C -16.6 °C 34635.4 hPa SW 6 km/h 6 km/h 53 % 0 mm
19:20 -14.1 °C -17.7 °C 34635.4 hPa North 2.6 km/h 2.6 km/h 63 % 0 mm
19:22 -11.6 °C -16.7 °C 34635.4 hPa SW 5.1 km/h 5.1 km/h 53 % 0 mm
19:27 -11.7 °C -16.8 °C 34635.4 hPa SW 6.3 km/h 6.3 km/h 53 % 0 mm
19:30 -14.1 °C -17.6 °C 34669.3 hPa Calm   2.6 km/h 64 % 0 mm
19:32 -11.8 °C -16.9 °C 34635.4 hPa SW 6.3 km/h 6.3 km/h 53 % 0 mm
19:47 -12.1 °C -17 °C 34635.4 hPa WSW 5.6 km/h 5.6 km/h 54 % 0 mm
19:50 -14.2 °C -17.7 °C 34635.4 hPa North 2.6 km/h 5.1 km/h 64 % 0 mm
19:52 -12.1 °C -17 °C 34635.4 hPa WSW 6.3 km/h 6.3 km/h 54 % 0 mm
20:00 -14.4 °C -17.9 °C 34635.4 hPa Calm   2.6 km/h 64 % 0 mm
20:02 -12.2 °C -17.2 °C 34635.4 hPa WSW 6 km/h 6 km/h 54 % 0 mm
20:07 -12.3 °C -17.2 °C 34635.4 hPa WSW 3.1 km/h 3.7 km/h 54 % 0 mm
20:10 -14.4 °C -17.8 °C 34669.3 hPa Calm     65 % 0 mm
20:12 -12.4 °C -17.2 °C 34635.4 hPa Calm     55 % 0 mm
20:17 -12.4 °C -17.2 °C 34635.4 hPa Calm     55 % 0 mm
20:20 -14.4 °C -17.8 °C 34669.3 hPa West 2.6 km/h 2.6 km/h 65 % 0 mm
20:22 -12.5 °C -17.3 °C 34635.4 hPa Calm     55 % 0 mm
20:30 -14.5 °C -17.9 °C 34669.3 hPa Calm   2.6 km/h 65 % 0 mm
20:32 -12.6 °C -17.3 °C 34669.3 hPa Calm     55 % 0 mm
20:40 -14.6 °C -17.9 °C 34669.3 hPa West 2.6 km/h 5.1 km/h 65 % 0 mm
20:42 -12.7 °C -17.3 °C 34669.3 hPa WSW 3.1 km/h   56 % 0 mm
20:47 -12.7 °C -17.3 °C 34669.3 hPa WSW 6 km/h 6 km/h 56 % 0 mm
20:50 -14.7 °C -18 °C 34669.3 hPa West 2.6 km/h 5.1 km/h 65 % 0 mm
20:52 -12.7 °C -17.3 °C 34669.3 hPa SW 3.1 km/h   56 % 0 mm
20:57 -12.8 °C -17.4 °C 34669.3 hPa SW 3.1 km/h   56 % 0 mm
21:00 -14.6 °C -17.9 °C 34669.3 hPa WSW 2.6 km/h 5.1 km/h 66 % 0 mm
21:02 -12.8 °C -17.4 °C 34669.3 hPa WSW 6 km/h 6 km/h 56 % 0 mm
21:07 -12.8 °C -17.4 °C 34669.3 hPa WSW 6 km/h 6 km/h 56 % 0 mm
21:12 -12.8 °C -17.3 °C 34669.3 hPa SW 6.8 km/h 6.8 km/h 57 % 0 mm
21:17 -12.9 °C -17.4 °C 34669.3 hPa WSW 5.1 km/h 5.1 km/h 57 % 0 mm
21:20 -14.7 °C -17.9 °C 34635.4 hPa Calm     67 % 0 mm
21:27 -12.9 °C -17.4 °C 34669.3 hPa SW 6 km/h 6 km/h 57 % 0 mm
21:32 -12.9 °C -17.4 °C 34635.4 hPa SW 6 km/h 6 km/h 57 % 0 mm
21:40 -14.7 °C -17.9 °C 34669.3 hPa Calm   2.6 km/h 67 % 0 mm
21:43 -12.9 °C -17.3 °C 34635.4 hPa Calm     58 % 0 mm
21:48 -13 °C -17.3 °C 34669.3 hPa Calm     58 % 0 mm
21:50 -14.9 °C -18.2 °C 34669.3 hPa WSW 2.6 km/h 5.1 km/h 66 % 0 mm
21:53 -13.1 °C -17.4 °C 34669.3 hPa WSW 6 km/h 6 km/h 58 % 0 mm
21:58 -13.2 °C -17.5 °C 34669.3 hPa WSW 6 km/h 6 km/h 58 % 0 mm
22:00 -15 °C -18 °C 34669.3 hPa Calm   5.1 km/h 68 % 0 mm
22:03 -13.2 °C -17.5 °C 34669.3 hPa WSW 6 km/h 6 km/h 58 % 0 mm
22:08 -13.2 °C -17.4 °C 34669.3 hPa WSW 6 km/h 6 km/h 59 % 0 mm
22:10 -14.9 °C -18.1 °C 34635.4 hPa WSW 2.6 km/h 5.1 km/h 67 % 0 mm
22:13 -13.2 °C -17.4 °C 34669.3 hPa WSW 6 km/h 6 km/h 59 % 0 mm
22:18 -13.3 °C -17.4 °C 34669.3 hPa WSW 3.1 km/h   59 % 0 mm
22:23 -13.3 °C -17.6 °C 34669.3 hPa WSW 3.7 km/h 3.7 km/h 59 % 0 mm
22:28 -13.4 °C -17.5 °C 34669.3 hPa SW 6 km/h 6 km/h 60 % 0 mm
22:30 -15.1 °C -18.1 °C 34635.4 hPa Calm     68 % 0 mm
22:33 -13.5 °C -17.6 °C 34669.3 hPa WSW 6 km/h 6 km/h 60 % 0 mm
22:40 -15.1 °C -17.9 °C 34635.4 hPa WSW 5.1 km/h 5.1 km/h 69 % 0 mm
22:43 -13.6 °C -17.4 °C 34669.3 hPa Calm     61 % 0 mm
22:48 -13.6 °C -17.4 °C 34669.3 hPa Calm     61 % 0 mm
22:49 -13.6 °C -17.6 °C 34669.3 hPa Calm     61 % 0 mm
22:50 -15 °C -17.9 °C 34635.4 hPa Calm   2.6 km/h 69 % 0 mm
22:54 -13.6 °C -17.6 °C 34669.3 hPa Calm     61 % 0 mm
22:59 -13.6 °C -17.4 °C 34669.3 hPa Calm     61 % 0 mm
23:00 -15.1 °C -18.1 °C 34635.4 hPa NW 2.6 km/h 5.1 km/h 68 % 0 mm
23:04 -13.6 °C -17.4 °C 34669.3 hPa Calm     61 % 0 mm
23:10 -15.1 °C -18.1 °C 34669.3 hPa Calm   5.1 km/h 68 % 0 mm
23:14 -13.6 °C -17.4 °C 34669.3 hPa Calm     62 % 0 mm
23:19 -13.6 °C -17.4 °C 34635.4 hPa NNW 3.7 km/h 3.7 km/h 61 % 0 mm
23:24 -13.4 °C -17.3 °C 34635.4 hPa West 3.1 km/h   62 % 0 mm
23:29 -13.5 °C -17.4 °C 34635.4 hPa West 6 km/h 6 km/h 61 % 0 mm
23:30 -15.2 °C -18.1 °C 34669.3 hPa Calm   5.1 km/h 69 % 0 mm
23:34 -13.6 °C -17.3 °C 34635.4 hPa West 4.2 km/h 4.2 km/h 62 % 0 mm
23:40 -15.2 °C -18.1 °C 34669.3 hPa Calm     69 % 0 mm
23:44 -13.6 °C -17.4 °C 34635.4 hPa WSW 3.1 km/h 3.7 km/h 62 % 0 mm
23:50 -15.3 °C -18.2 °C 34669.3 hPa NW 2.6 km/h 5.1 km/h 69 % 0 mm
23:54 -13.6 °C -17.4 °C 34635.4 hPa West 6.3 km/h 6.3 km/h 62 % 0 mm
Meteo Sesrovires
Elogis d' Weather Underground - 2 mb

Guio original per  Jim McMurry - jmcmurry@mwt.net Adaptat per a la plantilla per  Wim van der Kuil - Leuven-Template.eu

Trobareu la nostra informacio del temps tambe a:

Weather Underground

AWEKAS